createdAt,value
2018-01-28T00:00:19.111Z,64.29
2018-01-28T00:02:50.210Z,64.44
2018-01-28T00:05:21.328Z,64.44
2018-01-28T00:07:52.408Z,64.18
2018-01-28T00:10:23.554Z,64.08
2018-01-28T00:12:56.412Z,64.01
2018-01-28T00:15:27.475Z,64.04
2018-01-28T00:17:58.609Z,63.98
2018-01-28T00:20:29.710Z,64.14
2018-01-28T00:23:00.936Z,64.03
2018-01-28T00:25:32.059Z,63.95
2018-01-28T00:28:03.173Z,63.79
2018-01-28T00:30:34.297Z,63.83
2018-01-28T00:33:05.386Z,63.97
2018-01-28T00:35:36.525Z,63.90
2018-01-28T00:38:07.614Z,63.86
2018-01-28T00:40:38.719Z,63.80
2018-01-28T00:43:09.827Z,63.87
2018-01-28T00:45:40.974Z,63.99
2018-01-28T00:48:12.073Z,64.14
2018-01-28T00:50:43.187Z,64.41
2018-01-28T00:53:14.287Z,64.49
2018-01-28T00:55:45.391Z,64.63
2018-01-28T00:58:16.507Z,64.77
2018-01-28T01:00:47.619Z,64.62
2018-01-28T01:03:18.667Z,64.71
2018-01-28T01:05:49.760Z,65.09
2018-01-28T01:08:20.802Z,65.46
2018-01-28T01:10:51.907Z,65.32
2018-01-28T01:13:23.147Z,65.45
2018-01-28T01:15:54.208Z,66.00
2018-01-28T01:18:25.395Z,65.75
2018-01-28T01:20:56.557Z,65.49
2018-01-28T01:23:27.630Z,65.41
2018-01-28T01:25:58.771Z,65.36
2018-01-28T01:28:29.834Z,65.41
2018-01-28T01:31:00.917Z,65.56
2018-01-28T01:33:32.065Z,65.61
2018-01-28T01:36:03.180Z,65.77
2018-01-28T01:38:34.635Z,66.06
2018-01-28T01:41:05.745Z,66.08
2018-01-28T01:43:36.818Z,66.21
2018-01-28T01:46:11.054Z,66.34
2018-01-28T01:48:42.105Z,66.52
2018-01-28T01:51:13.183Z,66.77
2018-01-28T01:53:44.294Z,66.78
2018-01-28T01:56:15.389Z,66.65
2018-01-28T01:58:46.466Z,66.56
2018-01-28T02:01:17.547Z,66.87
2018-01-28T02:03:48.652Z,67.01
2018-01-28T02:06:19.730Z,67.10
2018-01-28T02:08:50.820Z,67.38
2018-01-28T02:11:22.080Z,67.51
2018-01-28T02:13:53.134Z,67.33
2018-01-28T02:16:24.249Z,68.41
2018-01-28T02:18:55.415Z,68.91
2018-01-28T02:21:26.577Z,68.90
2018-01-28T02:23:57.704Z,68.74
2018-01-28T02:26:28.803Z,68.79
2018-01-28T02:28:59.963Z,69.08
2018-01-28T02:31:31.632Z,69.15
2018-01-28T02:34:02.750Z,69.44
2018-01-28T02:36:33.811Z,69.64
2018-01-28T02:39:04.960Z,69.66
2018-01-28T02:41:36.068Z,69.72
2018-01-28T02:44:07.112Z,69.66
2018-01-28T02:46:38.351Z,69.86
2018-01-28T02:49:09.420Z,69.97
2018-01-28T02:51:40.527Z,69.97
2018-01-28T02:54:11.632Z,69.95
2018-01-28T02:56:42.731Z,69.91
2018-01-28T02:59:13.812Z,70.07
2018-01-28T03:01:44.898Z,70.55
2018-01-28T03:04:15.919Z,70.30
2018-01-28T03:06:47.044Z,69.96
2018-01-28T03:09:18.098Z,69.86
2018-01-28T03:11:49.196Z,69.58
2018-01-28T03:14:20.306Z,69.42
2018-01-28T03:16:51.357Z,69.62
2018-01-28T03:19:22.483Z,69.62
2018-01-28T03:21:53.555Z,69.45
2018-01-28T03:24:24.641Z,69.47
2018-01-28T03:26:55.699Z,69.51
2018-01-28T03:29:26.810Z,69.56
2018-01-28T03:31:57.904Z,69.71
2018-01-28T03:34:29.513Z,70.03
2018-01-28T03:37:00.656Z,70.11
2018-01-28T03:39:31.750Z,70.11
2018-01-28T03:42:02.870Z,69.90
2018-01-28T03:44:33.917Z,69.55
2018-01-28T03:47:05.213Z,69.31
2018-01-28T03:49:36.398Z,69.07
2018-01-28T03:52:07.493Z,68.97
2018-01-28T03:54:38.536Z,68.75
2018-01-28T03:57:09.618Z,68.60
2018-01-28T03:59:40.726Z,68.53
2018-01-28T04:02:11.798Z,68.56
2018-01-28T04:04:42.892Z,68.49
2018-01-28T04:07:13.938Z,68.52
2018-01-28T04:09:45.022Z,68.66
2018-01-28T04:12:16.138Z,68.66
2018-01-28T04:14:47.230Z,68.76
2018-01-28T04:17:18.288Z,68.85
2018-01-28T04:19:49.378Z,68.64
2018-01-28T04:22:20.474Z,68.47
2018-01-28T04:24:51.557Z,68.31
2018-01-28T04:27:22.696Z,67.99
2018-01-28T04:29:53.794Z,67.79
2018-01-28T04:32:24.894Z,67.72
2018-01-28T04:34:55.945Z,67.77
2018-01-28T04:37:27.073Z,67.63
2018-01-28T04:39:58.172Z,67.39
2018-01-28T04:42:29.256Z,67.39
2018-01-28T04:45:00.393Z,67.09
2018-01-28T04:47:31.438Z,66.71
2018-01-28T04:50:02.535Z,66.61
2018-01-28T04:52:33.628Z,66.42
2018-01-28T04:55:05.112Z,66.44
2018-01-28T04:57:36.172Z,66.31
2018-01-28T05:00:07.326Z,66.06
2018-01-28T05:02:38.393Z,65.75
2018-01-28T05:05:09.532Z,65.69
2018-01-28T05:07:40.639Z,65.57
2018-01-28T05:10:11.784Z,65.35
2018-01-28T05:12:42.915Z,65.31
2018-01-28T05:15:14.047Z,65.58
2018-01-28T05:17:45.138Z,65.55
2018-01-28T05:20:16.236Z,65.50
2018-01-28T05:22:47.320Z,65.50
2018-01-28T05:25:18.372Z,65.42
2018-01-28T05:27:49.428Z,65.48
2018-01-28T05:30:20.506Z,65.38
2018-01-28T05:32:52.185Z,65.63
2018-01-28T05:35:23.267Z,65.49
2018-01-28T05:37:54.311Z,65.56
2018-01-28T05:40:25.688Z,65.25
2018-01-28T05:42:56.779Z,65.29
2018-01-28T05:45:27.871Z,65.44
2018-01-28T05:47:59.129Z,65.50
2018-01-28T05:50:30.214Z,65.45
2018-01-28T05:53:01.356Z,65.26
2018-01-28T05:55:32.401Z,65.09
2018-01-28T05:58:03.673Z,64.83
2018-01-28T06:00:34.709Z,64.56
2018-01-28T06:03:06.007Z,64.17
2018-01-28T06:05:37.101Z,63.87
2018-01-28T06:08:08.178Z,63.74
2018-01-28T06:10:39.257Z,63.48
2018-01-28T06:13:10.392Z,63.32
2018-01-28T06:15:41.454Z,63.21
2018-01-28T06:18:12.529Z,63.14
2018-01-28T06:20:43.834Z,63.15
2018-01-28T06:23:14.915Z,63.12
2018-01-28T06:25:47.642Z,63.15
2018-01-28T06:28:18.798Z,63.08
2018-01-28T06:30:49.904Z,63.08
2018-01-28T06:33:21.030Z,63.14
2018-01-28T06:35:52.161Z,63.04
2018-01-28T06:38:23.259Z,63.35
2018-01-28T06:40:54.377Z,62.89
2018-01-28T06:43:25.431Z,62.65
2018-01-28T06:45:56.608Z,62.65
2018-01-28T06:48:27.752Z,62.69
2018-01-28T06:50:58.884Z,62.66
2018-01-28T06:53:30.012Z,62.24
2018-01-28T06:56:01.118Z,62.49
2018-01-28T06:58:32.178Z,62.44
2018-01-28T07:01:03.284Z,62.36
2018-01-28T07:03:34.411Z,62.62
2018-01-28T07:06:06.365Z,62.94
2018-01-28T07:08:37.507Z,63.04
2018-01-28T07:11:08.638Z,63.15
2018-01-28T07:13:39.703Z,62.62
2018-01-28T07:16:10.821Z,62.58
2018-01-28T07:18:42.752Z,62.27
2018-01-28T07:21:13.870Z,62.06
2018-01-28T07:23:44.981Z,61.82
2018-01-28T07:26:16.591Z,61.76
2018-01-28T07:28:47.705Z,61.64
2018-01-28T07:31:18.858Z,61.38
2018-01-28T07:33:49.922Z,61.04
2018-01-28T07:36:21.057Z,60.59
2018-01-28T07:38:52.153Z,60.09
2018-01-28T07:41:23.242Z,60.27
2018-01-28T07:43:54.332Z,59.97
2018-01-28T07:46:25.486Z,59.75
2018-01-28T07:48:56.576Z,59.52
2018-01-28T07:51:27.754Z,58.98
2018-01-28T07:53:58.857Z,58.43
2018-01-28T07:56:29.962Z,58.14
2018-01-28T07:59:01.045Z,57.71
2018-01-28T08:01:32.100Z,57.28
2018-01-28T08:04:03.393Z,56.85
2018-01-28T08:06:34.458Z,56.75
2018-01-28T08:09:05.582Z,56.86
2018-01-28T08:14:50.462Z,56.01
2018-01-28T08:17:21.618Z,55.89
2018-01-28T08:19:52.698Z,55.96
2018-01-28T08:22:23.859Z,56.04
2018-01-28T08:24:54.983Z,55.75
2018-01-28T08:27:30.006Z,55.32
2018-01-28T08:30:01.088Z,55.21
2018-01-28T08:32:32.317Z,55.01
2018-01-28T08:35:03.403Z,54.74
2018-01-28T08:37:34.535Z,54.52
2018-01-28T08:40:05.643Z,54.37
2018-01-28T08:42:36.720Z,54.35
2018-01-28T08:45:07.786Z,54.29
2018-01-28T08:47:38.825Z,54.22
2018-01-28T08:50:09.936Z,53.89
2018-01-28T08:52:41.028Z,53.89
2018-01-28T08:55:12.105Z,54.08
2018-01-28T08:57:43.220Z,53.91
2018-01-28T09:00:14.333Z,54.03
2018-01-28T09:02:45.406Z,53.72
2018-01-28T09:05:16.481Z,53.57
2018-01-28T09:07:47.540Z,53.31
2018-01-28T09:10:18.876Z,52.91
2018-01-28T09:12:50.025Z,52.60
2018-01-28T09:15:21.139Z,52.07
2018-01-28T09:17:52.261Z,51.26
2018-01-28T09:20:23.594Z,51.17
2018-01-28T09:22:54.638Z,50.85
2018-01-28T09:25:25.786Z,50.26
2018-01-28T09:27:56.859Z,49.23
2018-01-28T09:30:27.952Z,49.20
2018-01-28T09:32:59.061Z,48.75
2018-01-28T09:35:30.114Z,48.26
2018-01-28T09:38:01.174Z,49.03
2018-01-28T09:40:32.278Z,49.18
2018-01-28T09:43:03.392Z,48.83
2018-01-28T09:45:34.534Z,48.69
2018-01-28T09:48:05.625Z,48.27
2018-01-28T09:50:38.937Z,48.52
2018-01-28T09:53:09.989Z,48.58
2018-01-28T09:55:41.141Z,48.47
2018-01-28T09:58:12.381Z,48.05
2018-01-28T10:00:43.526Z,47.98
2018-01-28T10:03:14.592Z,48.04
2018-01-28T10:05:45.796Z,47.54
2018-01-28T10:08:16.825Z,46.86
2018-01-28T10:10:48.026Z,46.26
2018-01-28T10:13:19.106Z,46.06
2018-01-28T10:15:50.230Z,45.33
2018-01-28T10:18:21.319Z,45.34
2018-01-28T10:20:52.440Z,44.89
2018-01-28T10:23:23.509Z,44.55
2018-01-28T10:25:54.612Z,45.27
2018-01-28T10:28:25.854Z,45.17
2018-01-28T10:30:56.923Z,45.99
2018-01-28T10:33:27.989Z,45.80
2018-01-28T10:35:59.119Z,45.40
2018-01-28T10:38:30.170Z,45.58
2018-01-28T10:41:01.296Z,45.24
2018-01-28T10:43:32.322Z,44.91
2018-01-28T10:46:03.469Z,45.12
2018-01-28T10:48:34.585Z,44.94
2018-01-28T10:51:05.796Z,44.87
2018-01-28T10:53:36.864Z,44.89
2018-01-28T10:56:07.986Z,45.10
2018-01-28T10:58:39.082Z,45.18
2018-01-28T11:01:10.234Z,45.16
2018-01-28T11:03:41.318Z,44.92
2018-01-28T11:06:12.397Z,44.26
2018-01-28T11:08:43.486Z,43.90
2018-01-28T11:11:14.550Z,43.11
2018-01-28T11:13:45.676Z,42.66
2018-01-28T11:16:16.758Z,42.54
2018-01-28T11:18:47.877Z,42.54
2018-01-28T11:21:18.979Z,41.47
2018-01-28T11:23:50.038Z,40.01
2018-01-28T11:26:21.116Z,39.63
2018-01-28T11:28:52.295Z,38.98
2018-01-28T11:31:23.322Z,38.36
2018-01-28T11:33:54.439Z,38.37
2018-01-28T11:36:25.539Z,38.94
2018-01-28T11:38:56.588Z,39.02
2018-01-28T11:41:27.692Z,39.24
2018-01-28T11:43:58.757Z,40.18
2018-01-28T11:46:29.825Z,40.33
2018-01-28T11:49:00.899Z,40.56
2018-01-28T11:51:31.995Z,41.37
2018-01-28T11:54:03.078Z,41.21
2018-01-28T11:56:34.176Z,40.99
2018-01-28T11:59:05.242Z,40.57
2018-01-28T12:01:36.353Z,41.02
2018-01-28T12:04:07.408Z,42.13
2018-01-28T12:06:38.544Z,41.91
2018-01-28T12:09:09.636Z,41.16
2018-01-28T12:11:40.692Z,41.14
2018-01-28T12:14:11.817Z,41.19
2018-01-28T12:16:42.888Z,41.15
2018-01-28T12:19:14.008Z,41.44
2018-01-28T12:21:45.096Z,41.78
2018-01-28T12:24:16.167Z,42.23
2018-01-28T12:26:47.298Z,42.10
2018-01-28T12:29:18.335Z,42.16
2018-01-28T12:31:49.431Z,42.14
2018-01-28T12:34:20.518Z,42.80
2018-01-28T12:36:51.671Z,43.07
2018-01-28T12:39:22.733Z,43.32
2018-01-28T12:41:54.201Z,44.17
2018-01-28T12:44:25.242Z,44.56
2018-01-28T12:46:56.445Z,44.88
2018-01-28T12:49:28.039Z,45.61
2018-01-28T12:51:59.148Z,46.51
2018-01-28T12:54:30.205Z,46.61
2018-01-28T12:57:01.283Z,46.65
2018-01-28T12:59:32.334Z,46.73
2018-01-28T13:02:03.436Z,46.75
2018-01-28T13:04:34.472Z,46.71
2018-01-28T13:07:07.195Z,47.12
2018-01-28T13:09:38.258Z,47.72
2018-01-28T13:12:09.404Z,47.79
2018-01-28T13:14:40.487Z,48.00
2018-01-28T13:17:11.584Z,48.23
2018-01-28T13:19:42.652Z,47.86
2018-01-28T13:22:13.769Z,48.07
2018-01-28T13:24:44.809Z,47.76
2018-01-28T13:27:15.916Z,47.09
2018-01-28T13:29:46.953Z,47.04
2018-01-28T13:32:18.204Z,46.93
2018-01-28T13:34:49.264Z,47.13
2018-01-28T13:37:20.407Z,47.16
2018-01-28T13:39:51.455Z,46.63
2018-01-28T13:42:22.562Z,46.69
2018-01-28T13:44:53.774Z,46.32
2018-01-28T13:47:24.849Z,46.15
2018-01-28T13:49:55.938Z,46.68
2018-01-28T13:52:26.986Z,47.15
2018-01-28T13:54:58.123Z,47.21
2018-01-28T13:57:29.186Z,47.26
2018-01-28T14:00:00.409Z,47.63
2018-01-28T14:02:31.590Z,47.88
2018-01-28T14:05:02.708Z,48.24
2018-01-28T14:07:33.872Z,48.81
2018-01-28T14:10:04.927Z,49.35
2018-01-28T14:12:36.048Z,49.01
2018-01-28T14:15:07.082Z,49.06
2018-01-28T14:17:38.240Z,49.70
2018-01-28T14:20:09.333Z,49.60
2018-01-28T14:22:40.491Z,49.81
2018-01-28T14:25:11.547Z,49.92
2018-01-28T14:27:42.706Z,49.95
2018-01-28T14:30:13.760Z,49.86
2018-01-28T14:32:44.862Z,50.19
2018-01-28T14:35:15.930Z,50.27
2018-01-28T14:37:47.336Z,50.64
2018-01-28T14:40:18.436Z,50.91
2018-01-28T14:42:49.568Z,51.04
2018-01-28T14:45:20.686Z,51.50
2018-01-28T14:47:51.911Z,51.45
2018-01-28T14:50:22.972Z,51.35
2018-01-28T14:52:54.689Z,51.10
2018-01-28T14:55:26.562Z,51.17
2018-01-28T14:57:57.696Z,51.10
2018-01-28T15:00:29.725Z,51.00
2018-01-28T15:03:00.830Z,51.35
2018-01-28T15:05:31.885Z,51.33
2018-01-28T15:08:03.043Z,51.42
2018-01-28T15:10:34.092Z,51.56
2018-01-28T15:13:05.200Z,51.61
2018-01-28T15:15:36.267Z,51.71
2018-01-28T15:18:07.424Z,51.64
2018-01-28T15:20:38.456Z,51.71
2018-01-28T15:23:09.588Z,52.01
2018-01-28T15:25:40.743Z,51.72
2018-01-28T15:28:11.782Z,51.79
2018-01-28T15:30:42.888Z,52.01
2018-01-28T15:33:13.971Z,52.31
2018-01-28T15:35:45.088Z,52.49
2018-01-28T15:38:16.345Z,52.85
2018-01-28T15:40:47.453Z,52.85
2018-01-28T15:43:18.524Z,52.96
2018-01-28T15:45:49.641Z,52.93
2018-01-28T15:48:20.704Z,53.15
2018-01-28T15:50:51.855Z,53.18
2018-01-28T15:53:22.923Z,53.38
2018-01-28T15:55:54.007Z,53.76
2018-01-28T15:58:25.108Z,54.07
2018-01-28T16:00:56.194Z,53.97
2018-01-28T16:03:27.257Z,54.00
2018-01-28T16:05:58.366Z,54.03
2018-01-28T16:08:29.466Z,54.17
2018-01-28T16:11:00.553Z,54.26
2018-01-28T16:13:31.648Z,54.57
2018-01-28T16:16:02.761Z,54.72
2018-01-28T16:18:33.832Z,54.83
2018-01-28T16:21:04.913Z,54.72
2018-01-28T16:23:36.022Z,54.85
2018-01-28T16:26:07.193Z,54.97
2018-01-28T16:28:38.263Z,55.09
2018-01-28T16:31:09.365Z,55.25
2018-01-28T16:33:40.451Z,55.42
2018-01-28T16:36:11.784Z,55.29
2018-01-28T16:38:42.861Z,55.20
2018-01-28T16:41:13.952Z,55.23
2018-01-28T16:43:45.033Z,55.43
2018-01-28T16:46:16.162Z,55.59
2018-01-28T16:48:47.278Z,55.86
2018-01-28T16:51:18.332Z,55.92
2018-01-28T16:53:49.434Z,55.91
2018-01-28T16:56:20.508Z,56.01
2018-01-28T16:58:51.804Z,55.85
2018-01-28T17:01:22.875Z,55.85
2018-01-28T17:03:53.959Z,55.64
2018-01-28T17:06:25.018Z,55.49
2018-01-28T17:08:56.135Z,55.42
2018-01-28T17:11:27.206Z,55.17
2018-01-28T17:13:58.382Z,54.93
2018-01-28T17:16:29.496Z,55.11
2018-01-28T17:19:00.592Z,55.04
2018-01-28T17:21:31.673Z,55.00
2018-01-28T17:24:02.906Z,55.08
2018-01-28T17:26:37.011Z,54.99
2018-01-28T17:29:08.314Z,54.89
2018-01-28T17:31:39.409Z,54.66
2018-01-28T17:34:10.529Z,54.61
2018-01-28T17:36:41.650Z,54.46
2018-01-28T17:39:12.841Z,54.56
2018-01-28T17:41:43.952Z,54.91
2018-01-28T17:44:15.039Z,55.10
2018-01-28T17:46:46.163Z,54.95
2018-01-28T17:49:17.325Z,54.90
2018-01-28T17:51:48.441Z,55.07
2018-01-28T17:54:19.547Z,55.31
2018-01-28T17:56:50.616Z,55.06
2018-01-28T17:59:21.686Z,54.80
2018-01-28T18:01:52.814Z,54.71
2018-01-28T18:04:23.930Z,54.74
2018-01-28T18:06:55.055Z,54.68
2018-01-28T18:09:26.226Z,54.81
2018-01-28T18:11:57.335Z,54.96
2018-01-28T18:14:28.376Z,54.79
2018-01-28T18:16:59.468Z,54.64
2018-01-28T18:19:30.575Z,54.78
2018-01-28T18:22:01.646Z,54.84
2018-01-28T18:24:32.876Z,54.70
2018-01-28T18:27:03.947Z,54.84
2018-01-28T18:29:35.003Z,54.93
2018-01-28T18:32:06.065Z,55.10
2018-01-28T18:34:37.147Z,55.23
2018-01-28T18:37:08.458Z,55.24
2018-01-28T18:39:39.522Z,55.19
2018-01-28T18:42:10.694Z,55.09
2018-01-28T18:44:41.796Z,55.06
2018-01-28T18:47:12.843Z,55.09
2018-01-28T18:49:43.990Z,55.34
2018-01-28T18:52:15.051Z,55.43
2018-01-28T18:54:46.122Z,55.40
2018-01-28T18:57:17.202Z,55.31
2018-01-28T18:59:48.319Z,55.37
2018-01-28T19:02:19.361Z,55.59
2018-01-28T19:04:50.415Z,55.74
2018-01-28T19:07:21.487Z,55.88
2018-01-28T19:09:52.613Z,56.00
2018-01-28T19:12:23.795Z,55.99
2018-01-28T19:14:54.872Z,56.17
2018-01-28T19:17:26.002Z,56.04
2018-01-28T19:19:57.056Z,56.03
2018-01-28T19:22:28.204Z,55.98
2018-01-28T19:24:59.279Z,56.03
2018-01-28T19:27:30.423Z,55.97
2018-01-28T19:30:01.506Z,56.06
2018-01-28T19:32:32.630Z,56.04
2018-01-28T19:35:03.708Z,56.01
2018-01-28T19:37:34.776Z,56.05
2018-01-28T19:40:07.301Z,56.01
2018-01-28T19:42:38.390Z,56.07
2018-01-28T19:45:09.454Z,56.18
2018-01-28T19:47:40.614Z,56.17
2018-01-28T19:50:11.746Z,56.14
2018-01-28T19:52:42.857Z,55.95
2018-01-28T19:55:14.004Z,55.65
2018-01-28T19:57:45.129Z,55.69
2018-01-28T20:00:16.232Z,55.15
2018-01-28T20:02:47.338Z,54.88
2018-01-28T20:05:18.415Z,54.86
2018-01-28T20:07:49.506Z,54.91
2018-01-28T20:10:20.594Z,55.04
2018-01-28T20:12:51.674Z,55.06
2018-01-28T20:15:22.688Z,55.24
2018-01-28T20:17:53.808Z,55.37
2018-01-28T20:20:24.952Z,55.46
2018-01-28T20:22:56.071Z,55.37
2018-01-28T20:25:27.157Z,55.31
2018-01-28T20:27:58.290Z,55.27
2018-01-28T20:30:29.388Z,55.40
2018-01-28T20:33:00.486Z,55.22
2018-01-28T20:35:31.546Z,55.28
2018-01-28T20:38:02.582Z,55.29
2018-01-28T20:40:33.630Z,55.19
2018-01-28T20:43:04.668Z,55.04
2018-01-28T20:45:35.766Z,54.89
2018-01-28T20:48:06.851Z,54.71
2018-01-28T20:50:38.612Z,54.57
2018-01-28T20:53:09.702Z,54.61
2018-01-28T20:55:41.355Z,54.47
2018-01-28T20:58:12.514Z,54.40
2018-01-28T21:00:43.575Z,54.56
2018-01-28T21:03:14.641Z,54.55
2018-01-28T21:05:45.750Z,54.67
2018-01-28T21:08:16.807Z,54.65
2018-01-28T21:10:48.515Z,54.59
2018-01-28T21:13:19.664Z,54.54
2018-01-28T21:15:50.712Z,54.34
2018-01-28T21:18:21.802Z,54.28
2018-01-28T21:20:52.869Z,54.31
2018-01-28T21:23:24.030Z,54.36
2018-01-28T21:25:55.116Z,54.23
2018-01-28T21:28:26.275Z,54.23
2018-01-28T21:30:57.344Z,54.46
2018-01-28T21:33:28.463Z,54.61
2018-01-28T21:35:59.553Z,54.65
2018-01-28T21:38:30.685Z,54.84
2018-01-28T21:41:01.752Z,54.86
2018-01-28T21:43:32.843Z,55.05
2018-01-28T21:46:03.935Z,55.25
2018-01-28T21:48:35.046Z,55.38
2018-01-28T21:51:06.140Z,55.37
2018-01-28T21:53:37.245Z,55.37
2018-01-28T21:56:08.947Z,55.46
2018-01-28T21:58:40.024Z,55.56
2018-01-28T22:01:12.319Z,55.57
2018-01-28T22:03:43.394Z,55.37
2018-01-28T22:06:14.705Z,55.37
2018-01-28T22:08:45.797Z,55.32
2018-01-28T22:11:16.923Z,55.31
2018-01-28T22:13:47.991Z,55.45
2018-01-28T22:16:19.096Z,55.68
2018-01-28T22:18:50.231Z,55.97
2018-01-28T22:21:21.285Z,55.99
2018-01-28T22:23:52.367Z,56.00
2018-01-28T22:26:23.450Z,56.05
2018-01-28T22:28:54.523Z,56.01
2018-01-28T22:31:25.591Z,55.99
2018-01-28T22:33:56.723Z,56.14
2018-01-28T22:36:27.790Z,56.10
2018-01-28T22:38:58.881Z,56.04
2018-01-28T22:41:30.039Z,56.03
2018-01-28T22:44:01.114Z,56.24
2018-01-28T22:46:32.882Z,56.62
2018-01-28T22:49:03.965Z,56.78
2018-01-28T22:51:35.050Z,57.01
2018-01-28T22:54:06.140Z,57.21
2018-01-28T22:56:37.202Z,56.95
2018-01-28T22:59:08.307Z,56.77
2018-01-28T23:01:39.358Z,56.61
2018-01-28T23:04:10.435Z,56.88
2018-01-28T23:06:41.507Z,57.43
2018-01-28T23:09:12.591Z,57.83
2018-01-28T23:11:43.653Z,58.33
2018-01-28T23:14:15.399Z,58.20
2018-01-28T23:16:46.482Z,58.17
2018-01-28T23:19:17.554Z,58.35
2018-01-28T23:21:48.827Z,58.62
2018-01-28T23:24:19.910Z,58.59
2018-01-28T23:26:51.017Z,58.50
2018-01-28T23:29:22.064Z,58.61
2018-01-28T23:31:54.594Z,59.10
2018-01-28T23:34:25.707Z,59.19
2018-01-28T23:36:56.844Z,59.29
2018-01-28T23:39:27.945Z,59.22
2018-01-28T23:41:59.049Z,59.04
2018-01-28T23:44:30.098Z,59.01
2018-01-28T23:47:01.188Z,59.07
2018-01-28T23:49:32.306Z,59.09
2018-01-28T23:52:03.424Z,59.01
2018-01-28T23:54:34.521Z,59.01
2018-01-28T23:57:05.824Z,59.37
2018-01-28T23:59:36.934Z,59.60
